createdAt,value
2022-12-12T00:02:19.614Z,2.43
2022-12-12T00:04:51.966Z,2.41
2022-12-12T00:07:18.768Z,2.38
2022-12-12T00:09:45.540Z,2.37
2022-12-12T00:12:12.265Z,2.34
2022-12-12T00:14:39.445Z,2.33
2022-12-12T00:17:06.276Z,2.32
2022-12-12T00:19:33.558Z,2.29
2022-12-12T00:22:00.266Z,2.28
2022-12-12T00:24:26.970Z,2.28
2022-12-12T00:26:53.719Z,2.26
2022-12-12T00:29:20.374Z,2.25
2022-12-12T00:31:47.090Z,2.22
2022-12-12T00:34:13.837Z,2.21
2022-12-12T00:36:40.785Z,2.21
2022-12-12T00:39:07.774Z,2.19
2022-12-12T00:41:37.373Z,2.16
2022-12-12T00:44:04.518Z,2.15
2022-12-12T00:46:31.318Z,2.14
2022-12-12T00:48:59.205Z,2.14
2022-12-12T00:51:27.800Z,2.12
2022-12-12T00:53:55.354Z,2.10
2022-12-12T00:56:23.188Z,2.09
2022-12-12T00:58:50.070Z,2.10
2022-12-12T01:01:21.510Z,2.10
2022-12-12T01:03:48.489Z,2.09
2022-12-12T01:06:15.365Z,2.06
2022-12-12T01:08:42.495Z,2.05
2022-12-12T01:11:10.195Z,2.05
2022-12-12T01:13:37.075Z,2.06
2022-12-12T01:16:05.359Z,2.06
2022-12-12T01:18:32.402Z,2.07
2022-12-12T01:20:59.116Z,2.08
2022-12-12T01:23:25.963Z,2.08
2022-12-12T01:26:03.563Z,2.09
2022-12-12T01:28:30.345Z,2.13
2022-12-12T01:30:57.212Z,2.13
2022-12-12T01:33:24.126Z,2.13
2022-12-12T01:35:50.937Z,2.13
2022-12-12T01:38:17.749Z,2.13
2022-12-12T01:40:44.763Z,2.14
2022-12-12T01:43:16.069Z,2.15
2022-12-12T01:45:58.367Z,2.17
2022-12-12T01:48:28.035Z,2.14
2022-12-12T01:50:55.607Z,2.13
2022-12-12T01:53:23.551Z,2.13
2022-12-12T01:55:50.882Z,2.14
2022-12-12T01:58:17.809Z,2.16
2022-12-12T02:00:45.144Z,2.17
2022-12-12T02:03:12.171Z,2.16
2022-12-12T02:05:42.735Z,2.17
2022-12-12T02:08:10.727Z,2.17
2022-12-12T02:10:37.781Z,2.18
2022-12-12T02:13:09.937Z,2.16
2022-12-12T02:15:44.881Z,2.17
2022-12-12T02:18:20.361Z,2.16
2022-12-12T02:20:51.210Z,2.16
2022-12-12T02:23:47.249Z,2.24
2022-12-12T02:26:26.048Z,2.17
2022-12-12T02:29:04.896Z,2.14
2022-12-12T02:31:35.601Z,2.09
2022-12-12T02:34:05.606Z,2.08
2022-12-12T02:36:37.785Z,2.08
2022-12-12T02:39:51.866Z,2.06
2022-12-12T02:42:26.966Z,2.02
2022-12-12T02:45:04.087Z,2.00
2022-12-12T02:47:33.362Z,1.98
2022-12-12T02:50:16.680Z,1.96
2022-12-12T02:52:43.900Z,1.94
2022-12-12T02:55:10.946Z,1.93
2022-12-12T02:57:41.666Z,1.91
2022-12-12T03:00:14.704Z,1.87
2022-12-12T03:03:18.982Z,1.88
2022-12-12T03:06:30.897Z,1.84
2022-12-12T03:09:11.077Z,1.82
2022-12-12T03:12:01.879Z,1.81
2022-12-12T03:14:42.765Z,1.80
2022-12-12T03:17:35.673Z,1.88
2022-12-12T03:20:39.532Z,1.80
2022-12-12T03:23:14.402Z,1.76
2022-12-12T03:25:49.689Z,1.73
2022-12-12T03:28:29.663Z,1.73
2022-12-12T03:30:58.005Z,1.72
2022-12-12T03:33:30.357Z,1.70
2022-12-12T03:36:06.389Z,1.69
2022-12-12T03:38:37.010Z,1.67
2022-12-12T03:41:06.094Z,1.66
2022-12-12T03:43:37.367Z,1.64
2022-12-12T03:46:18.582Z,1.65
2022-12-12T03:48:49.801Z,1.63
2022-12-12T03:51:32.323Z,1.62
2022-12-12T03:54:12.952Z,1.61
2022-12-12T03:57:20.843Z,1.62
2022-12-12T03:59:57.378Z,1.59
2022-12-12T04:02:26.657Z,1.56
2022-12-12T04:05:20.485Z,1.56
2022-12-12T04:08:11.835Z,1.55
2022-12-12T04:11:10.864Z,1.54
2022-12-12T04:14:19.030Z,1.57
2022-12-12T04:16:46.488Z,1.55
2022-12-12T04:19:45.347Z,1.55
2022-12-12T04:22:38.118Z,1.55
2022-12-12T04:25:26.197Z,1.56
2022-12-12T04:27:55.101Z,1.57
2022-12-12T04:30:21.783Z,1.56
2022-12-12T04:32:58.724Z,1.57
2022-12-12T04:35:33.284Z,1.56
2022-12-12T04:38:26.290Z,1.58
2022-12-12T04:40:57.545Z,1.55
2022-12-12T04:43:35.789Z,1.58
2022-12-12T04:46:07.045Z,1.60
2022-12-12T04:48:39.510Z,1.62
2022-12-12T04:51:08.614Z,1.62
2022-12-12T04:53:38.906Z,1.62
2022-12-12T04:56:08.587Z,1.62
2022-12-12T04:58:37.041Z,1.62
2022-12-12T05:01:06.627Z,1.62
2022-12-12T05:03:44.093Z,1.61
2022-12-12T05:06:13.430Z,1.60
2022-12-12T05:08:43.615Z,1.58
2022-12-12T05:11:11.468Z,1.58
2022-12-12T05:13:40.640Z,1.59
2022-12-12T05:16:15.928Z,1.58
2022-12-12T05:18:42.733Z,1.58
2022-12-12T05:21:09.904Z,1.59
2022-12-12T05:23:36.669Z,1.58
2022-12-12T05:26:14.730Z,1.58
2022-12-12T05:28:41.585Z,1.59
2022-12-12T05:31:08.386Z,1.59
2022-12-12T05:33:35.369Z,1.59
2022-12-12T05:36:02.107Z,1.60
2022-12-12T05:38:28.937Z,1.60
2022-12-12T05:40:55.588Z,1.60
2022-12-12T05:43:22.340Z,1.60
2022-12-12T05:45:49.225Z,1.60
2022-12-12T05:48:20.966Z,1.58
2022-12-12T05:50:50.824Z,1.57
2022-12-12T05:53:18.158Z,1.56
2022-12-12T05:55:44.977Z,1.56
2022-12-12T05:58:12.149Z,1.56
2022-12-12T06:00:38.962Z,1.55
2022-12-12T06:03:05.739Z,1.54
2022-12-12T06:05:32.485Z,1.54
2022-12-12T06:08:00.594Z,1.53
2022-12-12T06:10:27.460Z,1.51
2022-12-12T06:12:54.224Z,1.51
2022-12-12T06:15:21.051Z,1.50
2022-12-12T06:17:47.852Z,1.48
2022-12-12T06:20:14.653Z,1.45
2022-12-12T06:22:42.360Z,1.44
2022-12-12T06:25:15.225Z,1.42
2022-12-12T06:27:50.900Z,1.40
2022-12-12T06:30:19.318Z,1.39
2022-12-12T06:32:46.002Z,1.37
2022-12-12T06:35:12.961Z,1.34
2022-12-12T06:37:40.617Z,1.33
2022-12-12T06:40:08.052Z,1.33
2022-12-12T06:42:34.790Z,1.31
2022-12-12T06:45:01.738Z,1.30
2022-12-12T06:47:28.490Z,1.28
2022-12-12T06:49:55.216Z,1.26
2022-12-12T06:52:25.130Z,1.23
2022-12-12T06:54:51.992Z,1.23
2022-12-12T06:57:18.726Z,1.21
2022-12-12T06:59:45.450Z,1.19
2022-12-12T07:02:12.413Z,1.16
2022-12-12T07:04:39.321Z,1.14
2022-12-12T07:07:06.157Z,1.12
2022-12-12T07:09:32.988Z,1.11
2022-12-12T07:11:59.809Z,1.10
2022-12-12T07:14:26.533Z,1.08
2022-12-12T07:16:53.300Z,1.07
2022-12-12T07:19:20.134Z,1.03
2022-12-12T07:21:47.131Z,1.01
2022-12-12T07:24:15.779Z,0.98
2022-12-12T07:26:42.613Z,0.79
2022-12-12T07:29:09.413Z,0.42
2022-12-12T07:31:36.337Z,0.06
2022-12-12T07:34:03.497Z,-0.27
2022-12-12T07:36:30.258Z,-0.56
2022-12-12T07:38:57.005Z,-0.77
2022-12-12T07:41:23.807Z,-0.91
2022-12-12T07:43:51.151Z,-1.02
2022-12-12T07:46:21.493Z,-1.14
2022-12-12T07:48:48.382Z,-1.26
2022-12-12T07:51:18.477Z,-1.43
2022-12-12T07:53:45.455Z,-1.49
2022-12-12T07:56:13.895Z,-1.55
2022-12-12T07:58:40.707Z,-1.59
2022-12-12T08:01:16.611Z,-1.65
2022-12-12T08:03:45.122Z,-1.76
2022-12-12T08:06:12.802Z,-1.85
2022-12-12T08:08:39.755Z,-1.90
2022-12-12T08:11:13.661Z,-1.91
2022-12-12T08:13:41.102Z,-1.92
2022-12-12T08:16:13.386Z,-1.92
2022-12-12T08:18:40.570Z,-1.86
2022-12-12T08:21:11.265Z,-1.80
2022-12-12T08:23:38.483Z,-1.72
2022-12-12T08:26:07.118Z,-1.75
2022-12-12T08:28:34.078Z,-1.72
2022-12-12T08:31:01.022Z,-1.63
2022-12-12T08:33:28.409Z,-1.56
2022-12-12T08:35:57.239Z,-1.53
2022-12-12T08:38:26.989Z,-1.44
2022-12-12T08:40:53.728Z,-1.36
2022-12-12T08:43:20.453Z,-1.29
2022-12-12T08:45:47.763Z,-1.30
2022-12-12T08:48:14.411Z,-1.26
2022-12-12T08:50:42.408Z,-1.26
2022-12-12T08:53:09.289Z,-1.25
2022-12-12T08:55:36.120Z,-1.17
2022-12-12T08:58:02.910Z,-1.01
2022-12-12T09:00:29.700Z,-0.89
2022-12-12T09:02:56.654Z,-0.80
2022-12-12T09:05:23.520Z,-0.74
2022-12-12T09:07:50.348Z,-0.71
2022-12-12T09:10:17.385Z,-0.66
2022-12-12T09:12:44.115Z,-0.63
2022-12-12T09:15:11.516Z,-0.59
2022-12-12T09:17:38.487Z,-0.50
2022-12-12T09:20:06.913Z,-0.43
2022-12-12T09:22:33.665Z,-0.40
2022-12-12T09:25:00.597Z,-0.43
2022-12-12T09:27:27.654Z,-0.47
2022-12-12T09:29:57.275Z,-0.44
2022-12-12T09:32:24.902Z,-0.40
2022-12-12T09:34:52.050Z,-0.40
2022-12-12T09:37:18.992Z,-0.37
2022-12-12T09:39:45.964Z,-0.32
2022-12-12T09:42:29.026Z,-0.28
2022-12-12T09:44:59.974Z,-0.26
2022-12-12T09:47:42.727Z,-0.21
2022-12-12T09:50:26.892Z,-0.21
2022-12-12T09:52:58.470Z,-0.21
2022-12-12T09:55:35.248Z,-0.15
2022-12-12T09:58:20.378Z,-0.14
2022-12-12T10:01:01.914Z,-0.10
2022-12-12T10:03:48.696Z,-0.13
2022-12-12T10:09:14.030Z,-0.08
2022-12-12T10:11:51.181Z,-0.19
2022-12-12T10:14:31.705Z,-0.33
2022-12-12T10:16:59.659Z,-0.36
2022-12-12T10:19:35.304Z,-0.31
2022-12-12T10:22:49.199Z,-0.19
2022-12-12T10:25:23.972Z,-0.26
2022-12-12T10:27:55.087Z,-0.25
2022-12-12T10:30:25.011Z,-0.13
2022-12-12T10:33:26.228Z,0.06
2022-12-12T10:36:12.343Z,0.22
2022-12-12T10:38:44.993Z,0.32
2022-12-12T10:41:18.086Z,0.38
2022-12-12T10:43:58.347Z,0.44
2022-12-12T10:46:28.805Z,0.51
2022-12-12T10:48:56.421Z,0.56
2022-12-12T10:51:24.310Z,0.59
2022-12-12T10:53:51.237Z,0.67
2022-12-12T10:56:31.475Z,0.73
2022-12-12T10:59:01.554Z,0.78
2022-12-12T11:02:09.518Z,0.85
2022-12-12T11:04:21.049Z,0.91
2022-12-12T11:06:55.527Z,0.97
2022-12-12T11:09:29.771Z,0.99
2022-12-12T11:12:23.041Z,1.04
2022-12-12T11:14:53.685Z,1.07
2022-12-12T11:17:22.017Z,1.11
2022-12-12T11:19:49.222Z,1.18
2022-12-12T11:22:16.146Z,1.21
2022-12-12T11:24:45.493Z,1.28
2022-12-12T11:27:51.013Z,1.39
2022-12-12T11:30:24.642Z,1.41
2022-12-12T11:32:54.137Z,1.43
2022-12-12T11:35:23.808Z,1.47
2022-12-12T11:37:55.604Z,1.49
2022-12-12T11:40:26.617Z,1.48
2022-12-12T11:43:04.618Z,1.57
2022-12-12T11:45:31.338Z,1.53
2022-12-12T11:47:58.510Z,1.51
2022-12-12T11:50:29.790Z,1.60
2022-12-12T11:53:00.495Z,1.67
2022-12-12T11:55:57.862Z,1.75
2022-12-12T11:58:34.149Z,1.68
2022-12-12T12:01:07.342Z,1.65
2022-12-12T12:03:54.189Z,1.51
2022-12-12T12:09:12.722Z,1.63
2022-12-12T12:12:01.782Z,1.81
2022-12-12T12:14:49.853Z,1.86
2022-12-12T12:17:23.494Z,1.90
2022-12-12T12:20:08.715Z,1.99
2022-12-12T12:23:03.858Z,2.04
2022-12-12T12:25:52.914Z,2.06
2022-12-12T12:28:26.306Z,2.04
2022-12-12T12:30:59.817Z,2.07
2022-12-12T12:33:54.631Z,2.12
2022-12-12T12:36:26.464Z,2.20
2022-12-12T12:38:54.746Z,2.27
2022-12-12T12:42:00.446Z,2.32
2022-12-12T12:44:45.968Z,2.32
2022-12-12T12:47:28.122Z,2.32
2022-12-12T12:49:59.124Z,2.25
2022-12-12T12:52:57.236Z,2.30
2022-12-12T12:55:32.053Z,2.37
2022-12-12T12:58:01.372Z,2.45
2022-12-12T13:00:30.719Z,2.49
2022-12-12T13:03:13.792Z,2.56
2022-12-12T13:05:55.310Z,2.61
2022-12-12T13:08:43.355Z,2.61
2022-12-12T13:14:40.925Z,2.71
2022-12-12T13:17:14.554Z,2.76
2022-12-12T13:19:43.326Z,2.79
2022-12-12T13:22:30.793Z,2.73
2022-12-12T13:25:38.112Z,2.67
2022-12-12T13:28:15.205Z,2.61
2022-12-12T13:30:45.034Z,2.64
2022-12-12T13:33:35.331Z,2.70
2022-12-12T13:36:10.678Z,2.75
2022-12-12T13:38:38.054Z,2.77
2022-12-12T13:41:07.579Z,2.79
2022-12-12T13:43:34.310Z,2.78
2022-12-12T13:46:27.310Z,2.78
2022-12-12T13:49:00.185Z,2.72
2022-12-12T13:51:31.108Z,2.66
2022-12-12T13:54:12.030Z,2.65
2022-12-12T13:56:40.788Z,2.56
2022-12-12T13:59:22.589Z,2.46
2022-12-12T14:01:51.131Z,2.39
2022-12-12T14:04:24.599Z,2.34
2022-12-12T14:07:11.248Z,2.21
2022-12-12T14:09:49.908Z,2.09
2022-12-12T14:12:31.406Z,2.02
2022-12-12T14:15:04.491Z,2.04
2022-12-12T14:17:40.046Z,2.02
2022-12-12T14:20:24.702Z,2.01
2022-12-12T14:22:51.401Z,2.01
2022-12-12T14:25:20.947Z,2.03
2022-12-12T14:27:50.701Z,1.89
2022-12-12T14:30:23.528Z,1.75
2022-12-12T14:32:51.650Z,1.74
2022-12-12T14:35:47.847Z,1.66
2022-12-12T14:38:44.405Z,1.67
2022-12-12T14:41:18.325Z,1.58
2022-12-12T14:44:36.562Z,1.48
2022-12-12T14:46:43.054Z,1.41
2022-12-12T14:49:17.420Z,1.32
2022-12-12T14:51:50.020Z,1.18
2022-12-12T14:54:22.324Z,1.18
2022-12-12T14:56:54.971Z,1.16
2022-12-12T14:59:24.084Z,1.18
2022-12-12T15:01:53.749Z,1.12
2022-12-12T15:04:29.970Z,1.08
2022-12-12T15:07:04.847Z,0.94
2022-12-12T15:09:33.484Z,0.90
2022-12-12T15:12:14.277Z,0.93
2022-12-12T15:14:51.936Z,0.98
2022-12-12T15:17:23.035Z,0.88
2022-12-12T15:19:52.370Z,0.81
2022-12-12T15:22:27.911Z,0.71
2022-12-12T15:24:56.396Z,0.68
2022-12-12T15:27:37.388Z,0.65
2022-12-12T15:30:27.715Z,0.61
2022-12-12T15:32:54.980Z,0.53
2022-12-12T15:35:23.129Z,0.38
2022-12-12T15:38:02.967Z,0.26
2022-12-12T15:40:31.154Z,0.25
2022-12-12T15:43:00.306Z,0.23
2022-12-12T15:45:36.965Z,0.11
2022-12-12T15:48:04.986Z,-0.03
2022-12-12T15:50:37.091Z,-0.11
2022-12-12T15:53:15.195Z,-0.23
2022-12-12T15:56:07.732Z,-0.42
2022-12-12T15:58:48.758Z,-0.43
2022-12-12T16:01:22.356Z,-0.36
2022-12-12T16:03:58.582Z,-0.32
2022-12-12T16:06:26.262Z,-0.14
2022-12-12T16:09:02.033Z,0.08
2022-12-12T16:11:31.882Z,0.25
2022-12-12T16:13:58.809Z,0.42
2022-12-12T16:16:45.734Z,0.57
2022-12-12T16:19:22.292Z,0.71
2022-12-12T16:21:48.897Z,0.83
2022-12-12T16:24:23.748Z,0.92
2022-12-12T16:26:50.576Z,1.00
2022-12-12T16:29:17.204Z,1.09
2022-12-12T16:31:44.983Z,1.16
2022-12-12T16:34:11.624Z,1.22
2022-12-12T16:36:41.969Z,1.26
2022-12-12T16:39:09.410Z,1.34
2022-12-12T16:41:36.024Z,1.39
2022-12-12T16:44:03.852Z,1.43
2022-12-12T16:46:34.524Z,1.45
2022-12-12T16:49:10.556Z,1.50
2022-12-12T16:51:41.078Z,1.54
2022-12-12T16:54:15.729Z,1.57
2022-12-12T16:56:42.494Z,1.60
2022-12-12T16:59:09.513Z,1.62
2022-12-12T17:01:38.941Z,1.64
2022-12-12T17:04:06.840Z,1.66
2022-12-12T17:06:37.013Z,1.68
2022-12-12T17:09:03.920Z,1.70
2022-12-12T17:11:30.559Z,1.72
2022-12-12T17:13:57.485Z,1.74
2022-12-12T17:16:27.709Z,1.77
2022-12-12T17:18:55.278Z,1.80
2022-12-12T17:21:22.715Z,1.82
2022-12-12T17:23:49.484Z,1.83
2022-12-12T17:26:16.304Z,1.82
2022-12-12T17:28:43.105Z,1.80
2022-12-12T17:31:10.138Z,1.81
2022-12-12T17:33:42.325Z,1.82
2022-12-12T17:36:17.213Z,1.83
2022-12-12T17:38:44.176Z,1.84
2022-12-12T17:41:11.017Z,1.86
2022-12-12T17:43:37.686Z,1.87
2022-12-12T17:46:05.605Z,1.88
2022-12-12T17:48:32.964Z,1.89
2022-12-12T17:51:03.803Z,1.91
2022-12-12T17:53:36.602Z,1.92
2022-12-12T17:56:07.976Z,1.91
2022-12-12T17:58:39.092Z,1.92
2022-12-12T18:01:18.225Z,1.92
2022-12-12T18:03:45.582Z,1.92
2022-12-12T18:06:12.558Z,1.92
2022-12-12T18:08:39.779Z,1.90
2022-12-12T18:11:07.546Z,1.90
2022-12-12T18:13:34.587Z,1.89
2022-12-12T18:16:01.222Z,1.89
2022-12-12T18:18:28.357Z,1.89
2022-12-12T18:20:55.422Z,1.89
2022-12-12T18:23:26.927Z,1.88
2022-12-12T18:25:53.757Z,1.87
2022-12-12T18:28:20.497Z,1.87
2022-12-12T18:30:48.469Z,1.88
2022-12-12T18:33:14.992Z,1.86
2022-12-12T18:35:41.620Z,1.86
2022-12-12T18:38:08.308Z,1.85
2022-12-12T18:40:34.981Z,1.84
2022-12-12T18:43:01.737Z,1.86
2022-12-12T18:45:28.357Z,1.87
2022-12-12T18:47:55.768Z,1.90
2022-12-12T18:50:22.533Z,1.92
2022-12-12T18:52:49.130Z,1.92
2022-12-12T18:55:15.744Z,1.94
2022-12-12T18:57:49.690Z,1.94
2022-12-12T19:00:23.586Z,1.96
2022-12-12T19:02:56.365Z,1.97
2022-12-12T19:05:23.794Z,1.98
2022-12-12T19:07:50.455Z,1.99
2022-12-12T19:10:17.514Z,2.00
2022-12-12T19:12:44.444Z,2.03
2022-12-12T19:15:18.620Z,2.05
2022-12-12T19:17:45.495Z,2.06
2022-12-12T19:20:13.023Z,2.07
2022-12-12T19:22:45.938Z,2.07
2022-12-12T19:25:14.092Z,2.12
2022-12-12T19:27:40.661Z,2.13
2022-12-12T19:30:09.060Z,2.13
2022-12-12T19:32:35.743Z,2.12
2022-12-12T19:35:02.658Z,2.09
2022-12-12T19:37:29.233Z,2.08
2022-12-12T19:39:56.892Z,2.08
2022-12-12T19:42:23.465Z,2.06
2022-12-12T19:44:51.174Z,2.10
2022-12-12T19:47:18.839Z,2.13
2022-12-12T19:49:45.439Z,2.12
2022-12-12T19:52:14.264Z,2.09
2022-12-12T19:54:41.309Z,2.09
2022-12-12T19:57:07.848Z,2.10
2022-12-12T19:59:34.775Z,2.10
2022-12-12T20:02:01.633Z,2.11
2022-12-12T20:04:30.317Z,2.13
2022-12-12T20:06:57.366Z,2.13
2022-12-12T20:09:27.776Z,2.09
2022-12-12T20:11:54.752Z,2.09
2022-12-12T20:14:25.822Z,2.09
2022-12-12T20:16:52.627Z,2.10
2022-12-12T20:19:19.332Z,2.12
2022-12-12T20:22:03.641Z,2.14
2022-12-12T20:24:31.528Z,2.17
2022-12-12T20:26:59.765Z,2.16
2022-12-12T20:29:26.621Z,2.15
2022-12-12T20:31:53.204Z,2.13
2022-12-12T20:34:22.614Z,2.14
2022-12-12T20:36:50.393Z,2.15
2022-12-12T20:39:19.404Z,2.15
2022-12-12T20:41:45.984Z,2.14
2022-12-12T20:44:12.840Z,2.14
2022-12-12T20:46:40.384Z,2.15
2022-12-12T20:49:08.735Z,2.13
2022-12-12T20:54:24.398Z,2.15
2022-12-12T20:56:51.546Z,2.15
2022-12-12T20:59:18.249Z,2.14
2022-12-12T21:01:45.110Z,2.13
2022-12-12T21:04:12.062Z,2.14
2022-12-12T21:06:39.592Z,2.14
2022-12-12T21:09:07.865Z,2.10
2022-12-12T21:11:34.680Z,2.10
2022-12-12T21:14:01.507Z,2.10
2022-12-12T21:16:30.117Z,2.10
2022-12-12T21:19:04.480Z,2.12
2022-12-12T21:21:31.514Z,2.10
2022-12-12T21:23:58.173Z,2.09
2022-12-12T21:26:29.024Z,2.08
2022-12-12T21:28:56.381Z,2.06
2022-12-12T21:31:24.336Z,2.04
2022-12-12T21:33:51.720Z,2.04
2022-12-12T21:36:19.588Z,2.03
2022-12-12T21:38:46.269Z,2.02
2022-12-12T21:41:16.872Z,2.02
2022-12-12T21:43:44.368Z,2.04
2022-12-12T21:46:12.200Z,2.06
2022-12-12T21:48:40.982Z,2.05
2022-12-12T21:51:09.217Z,2.04
2022-12-12T21:53:35.937Z,2.01
2022-12-12T21:56:12.135Z,2.00
2022-12-12T21:58:40.654Z,2.01
2022-12-12T22:01:11.456Z,2.02
2022-12-12T22:03:38.299Z,2.03
2022-12-12T22:06:18.105Z,2.03
2022-12-12T22:08:45.107Z,2.04
2022-12-12T22:11:11.698Z,2.01
2022-12-12T22:13:40.307Z,2.02
2022-12-12T22:16:08.944Z,2.04
2022-12-12T22:18:36.692Z,2.06
2022-12-12T22:21:07.171Z,2.08
2022-12-12T22:23:36.369Z,2.09
2022-12-12T22:26:12.950Z,2.10
2022-12-12T22:28:39.661Z,2.12
2022-12-12T22:31:06.216Z,2.08
2022-12-12T22:33:32.820Z,2.06
2022-12-12T22:36:05.862Z,2.06
2022-12-12T22:38:37.828Z,2.07
2022-12-12T22:41:05.415Z,2.07
2022-12-12T22:43:32.161Z,2.04
2022-12-12T22:46:08.093Z,2.05
2022-12-12T22:48:35.256Z,2.07
2022-12-12T22:51:21.533Z,2.07
2022-12-12T22:53:48.319Z,2.09
2022-12-12T22:56:14.918Z,2.08
2022-12-12T22:58:41.543Z,2.08
2022-12-12T23:01:18.285Z,2.07
2022-12-12T23:03:45.184Z,2.08
2022-12-12T23:06:13.401Z,2.06
2022-12-12T23:08:40.395Z,2.05
2022-12-12T23:11:07.913Z,2.05
2022-12-12T23:13:35.122Z,2.04
2022-12-12T23:16:05.803Z,2.03
2022-12-12T23:18:32.503Z,2.12
2022-12-12T23:20:59.146Z,2.02
2022-12-12T23:23:25.765Z,1.97
2022-12-12T23:25:52.913Z,1.94
2022-12-12T23:28:19.509Z,1.92
2022-12-12T23:30:46.128Z,1.90
2022-12-12T23:33:12.769Z,1.90
2022-12-12T23:35:45.516Z,1.90
2022-12-12T23:38:12.097Z,1.85
2022-12-12T23:40:39.024Z,1.83
2022-12-12T23:43:05.701Z,1.82
2022-12-12T23:45:34.730Z,1.81
2022-12-12T23:48:01.489Z,1.82
2022-12-12T23:50:28.084Z,1.80
2022-12-12T23:52:55.425Z,1.79
2022-12-12T23:55:21.937Z,1.77
2022-12-12T23:57:48.516Z,1.77
